Time;durP1;ratioP1;P1;durP2;ratioP2;P2;SDS_P1;SDS_P2;PMS_P1;PMS_P2;Temp;Humidity;BMP_temperature;BMP_pressure;BME280_temperature;BME280_humidity;BME280_pressure;Samples;Min_cycle;Max_cycle;Signal;HPM_P1;HPM_P2
2022/05/20 00:01:09;;;;;;;9.68;5.45;;;;;;;10.24;59.62;100938.70;1762280;80;21060;-69
2022/05/20 00:03:38;;;;;;;8.80;5.33;;;;;;;10.21;59.94;100933.85;1752363;81;21081;-70
2022/05/20 00:06:05;;;;;;;9.98;5.50;;;;;;;10.18;60.21;100936.48;1759059;80;21041;-70
2022/05/20 00:08:32;;;;;;;8.53;5.20;;;;;;;10.17;60.41;100930.86;1762765;80;21076;-70
2022/05/20 00:11:00;;;;;;;7.65;5.00;;;;;;;10.15;60.64;100926.28;1765068;80;21033;-70
2022/05/20 00:13:27;;;;;;;8.83;5.30;;;;;;;10.13;60.79;100932.39;1762927;80;21034;-70
2022/05/20 00:15:55;;;;;;;10.95;5.75;;;;;;;10.08;61.10;100935.80;1765383;80;21022;-71
2022/05/20 00:18:21;;;;;;;9.05;5.47;;;;;;;10.04;61.50;100936.55;1763137;80;21652;-68
2022/05/20 00:20:50;;;;;;;9.85;5.40;;;;;;;10.04;61.79;100935.20;1760990;80;20987;-70
2022/05/20 00:23:18;;;;;;;9.98;5.62;;;;;;;10.05;61.88;100927.47;1766053;80;21543;-71
2022/05/20 00:25:47;;;;;;;8.38;4.72;;;;;;;10.06;61.96;100920.55;1765319;80;21015;-71
2022/05/20 00:28:21;;;;;;;9.13;5.60;;;;;;;10.08;62.04;100922.45;1763420;80;21105;-70
2022/05/20 00:31:04;;;;;;;10.53;6.20;;;;;;;10.12;62.02;100928.64;1760317;80;21504;-69
2022/05/20 00:33:31;;;;;;;5.67;3.77;;;;;;;10.14;62.08;100926.55;1756578;80;21222;-68
2022/05/20 00:35:58;;;;;;;6.70;3.40;;;;;;;10.19;61.65;100927.94;1745997;80;21117;-69
2022/05/20 00:38:26;;;;;;;8.18;4.30;;;;;;;10.24;60.41;100919.48;1756990;80;21555;-69
2022/05/20 00:40:55;;;;;;;8.00;5.35;;;;;;;10.32;59.95;100917.74;1750186;80;21022;-69
2022/05/20 00:43:42;;;;;;;8.28;5.30;;;;;;;10.44;60.42;100918.19;1762691;80;21061;-69
2022/05/20 00:46:19;;;;;;;7.37;5.00;;;;;;;10.51;60.80;100915.60;1757780;80;21560;-69
2022/05/20 00:48:46;;;;;;;8.43;5.08;;;;;;;10.58;60.69;100913.28;1762263;80;20987;-70
2022/05/20 00:51:28;;;;;;;9.38;5.55;;;;;;;10.63;61.02;100912.83;1762667;80;21034;-69
2022/05/20 00:54:08;;;;;;;8.53;4.60;;;;;;;10.70;61.10;100915.31;1761802;80;21025;-69
2022/05/20 00:56:41;;;;;;;8.08;4.87;;;;;;;10.76;61.15;100909.78;1734909;82;21137;-70
2022/05/20 00:59:11;;;;;;;9.55;4.60;;;;;;;10.82;61.37;100920.51;1739680;82;21140;-70
2022/05/20 01:01:39;;;;;;;7.85;4.80;;;;;;;10.86;61.48;100916.27;1762460;80;20942;-69
2022/05/20 01:04:06;;;;;;;7.90;4.53;;;;;;;10.89;61.56;100909.92;1760705;80;21062;-69
2022/05/20 01:06:33;;;;;;;7.03;4.30;;;;;;;10.94;61.39;100904.63;1751851;80;21538;-70
2022/05/20 01:09:00;;;;;;;7.45;4.78;;;;;;;10.98;61.26;100904.92;1758046;80;21034;-70
2022/05/20 01:11:27;;;;;;;9.00;4.95;;;;;;;10.98;61.15;100905.73;1759644;80;21106;-69
2022/05/20 01:13:54;;;;;;;7.83;5.10;;;;;;;10.99;61.13;100904.69;1766587;80;20987;-69
2022/05/20 01:16:22;;;;;;;8.70;4.80;;;;;;;11.02;61.04;100908.20;1749188;80;21475;-71
2022/05/20 01:18:53;;;;;;;8.20;4.50;;;;;;;11.08;60.80;100908.23;1757687;80;21034;-68
2022/05/20 01:21:18;;;;;;;7.08;4.00;;;;;;;11.11;60.35;100897.05;1747966;81;21486;-70
2022/05/20 01:23:44;;;;;;;6.78;3.40;;;;;;;11.15;59.87;100910.18;1757832;80;21193;-70
2022/05/20 01:26:11;;;;;;;7.10;3.65;;;;;;;11.18;57.96;100906.47;1759931;80;21052;-70
2022/05/20 01:28:39;;;;;;;6.00;3.60;;;;;;;11.24;57.40;100902.79;1746880;80;21012;-69
2022/05/20 01:31:12;;;;;;;7.80;3.92;;;;;;;11.33;57.64;100898.34;1755259;80;21034;-70
2022/05/20 01:33:43;;;;;;;5.70;3.10;;;;;;;11.37;57.36;100898.91;1753494;80;20994;-69
2022/05/20 01:36:15;;;;;;;5.78;2.87;;;;;;;11.41;57.36;100901.87;1764522;80;21126;-69
2022/05/20 01:38:43;;;;;;;5.95;3.08;;;;;;;11.45;56.67;100902.97;1745742;80;21100;-69
2022/05/20 01:41:17;;;;;;;5.53;3.20;;;;;;;11.50;56.05;100906.52;1763397;80;21109;-70
2022/05/20 01:44:11;;;;;;;4.90;3.08;;;;;;;11.56;55.56;100905.23;1759741;80;20991;-70
2022/05/20 01:47:09;;;;;;;4.67;2.37;;;;;;;11.62;55.29;100897.52;1751096;80;21081;-70
2022/05/20 01:49:50;;;;;;;4.70;2.42;;;;;;;11.69;54.74;100888.21;1736683;80;21631;-71
2022/05/20 01:52:25;;;;;;;5.40;2.45;;;;;;;11.74;53.81;100886.09;1701757;82;21046;-71
2022/05/20 01:55:11;;;;;;;7.12;3.00;;;;;;;11.80;53.15;100886.41;1695790;82;20967;-70
2022/05/20 01:58:12;;;;;;;5.05;2.77;;;;;;;11.86;52.46;100881.41;1700198;82;20972;-70
2022/05/20 02:00:40;;;;;;;7.17;3.30;;;;;;;11.94;52.64;100882.28;1688845;82;20975;-68
2022/05/20 02:03:27;;;;;;;6.22;3.58;;;;;;;12.03;52.97;100882.58;1744192;81;21119;-69
2022/05/20 02:06:03;;;;;;;5.97;3.90;;;;;;;12.06;54.43;100881.27;1738252;80;21017;-69
2022/05/20 02:08:45;;;;;;;6.62;4.25;;;;;;;11.99;55.51;100890.06;1746148;80;21081;-69
2022/05/20 02:11:18;;;;;;;5.55;3.87;;;;;;;11.90;56.43;100898.55;1733684;82;28564;-69
2022/05/20 02:14:12;;;;;;;5.37;2.85;;;;;;;11.87;56.96;100896.92;1763094;80;21039;-69
2022/05/20 02:16:44;;;;;;;5.92;3.22;;;;;;;11.84;57.17;100896.90;1748938;80;21238;-69
2022/05/20 02:19:21;;;;;;;5.62;2.95;;;;;;;11.82;56.88;100890.98;1752657;80;21557;-69
2022/05/20 02:21:51;;;;;;;3.95;2.42;;;;;;;11.84;56.32;100889.38;1764346;80;21489;-69
2022/05/20 02:24:22;;;;;;;5.05;2.58;;;;;;;11.86;55.34;100890.77;1763898;80;21039;-68
2022/05/20 02:26:56;;;;;;;4.50;2.30;;;;;;;11.92;54.24;100887.61;1759667;80;21089;-69
2022/05/20 02:29:32;;;;;;;4.60;2.20;;;;;;;12.01;52.58;100886.57;1765149;79;21107;-69
2022/05/20 02:32:34;;;;;;;4.37;2.20;;;;;;;12.13;51.62;100887.19;1751332;80;20995;-69
2022/05/20 02:35:05;;;;;;;4.10;2.00;;;;;;;12.24;50.90;100889.39;1753321;80;21050;-70
2022/05/20 02:37:35;;;;;;;4.15;2.27;;;;;;;12.35;49.73;100881.70;1765608;80;21017;-69
2022/05/20 02:40:03;;;;;;;4.97;2.65;;;;;;;12.43;49.41;100886.00;1763443;80;21560;-69
2022/05/20 02:42:31;;;;;;;4.05;2.10;;;;;;;12.52;48.82;100880.96;1764706;80;21525;-71
2022/05/20 02:45:00;;;;;;;4.22;2.10;;;;;;;12.60;48.36;100878.30;1764012;80;21015;-70
2022/05/20 02:47:31;;;;;;;3.42;2.00;;;;;;;12.66;48.16;100875.38;1763526;80;21041;-70
2022/05/20 02:50:04;;;;;;;3.95;2.30;;;;;;;12.73;48.22;100876.47;1750115;80;21612;-70
2022/05/20 02:52:33;;;;;;;4.90;2.17;;;;;;;12.79;48.03;100876.77;1755036;80;20994;-70
2022/05/20 02:55:00;;;;;;;5.60;2.15;;;;;;;12.85;47.90;100879.73;1763256;80;21816;-70
2022/05/20 02:57:27;;;;;;;3.70;1.95;;;;;;;12.90;47.69;100881.64;1764616;80;21069;-71
2022/05/20 03:05:28;;;;;;;5.30;2.40;;;;;;;13.05;46.49;100870.93;1764264;80;21030;-70
2022/05/20 03:07:55;;;;;;;4.60;2.40;;;;;;;13.09;46.14;100867.18;1755213;80;21085;-70
2022/05/20 03:10:23;;;;;;;5.53;2.40;;;;;;;13.15;46.15;100878.98;1750710;80;21058;-70
2022/05/20 03:12:51;;;;;;;5.60;2.55;;;;;;;13.22;46.01;100888.66;1761468;80;20935;-69
2022/05/20 03:15:20;;;;;;;4.60;2.20;;;;;;;13.30;45.80;100888.98;1716838;82;21000;-70
2022/05/20 03:17:48;;;;;;;6.08;2.65;;;;;;;13.38;45.57;100885.75;1713153;82;21058;-70
2022/05/20 03:20:16;;;;;;;4.70;2.42;;;;;;;13.46;45.87;100884.95;1766419;80;21422;-69
2022/05/20 03:22:43;;;;;;;5.95;2.42;;;;;;;13.52;45.63;100894.61;1763387;80;21057;-69
2022/05/20 03:25:13;;;;;;;5.58;2.20;;;;;;;13.57;45.44;100899.45;1759835;80;21057;-69
2022/05/20 03:27:43;;;;;;;4.50;2.62;;;;;;;13.63;45.11;100902.95;1758872;80;21617;-69
2022/05/20 03:30:11;;;;;;;6.03;2.65;;;;;;;13.69;45.07;100897.02;1760606;81;21018;-70
2022/05/20 03:32:38;;;;;;;4.97;2.40;;;;;;;13.76;45.12;100902.95;1762958;80;21773;-71
2022/05/20 03:35:07;;;;;;;5.25;2.50;;;;;;;13.83;45.19;100907.51;1760502;81;21497;-71
2022/05/20 03:37:33;;;;;;;4.62;2.77;;;;;;;13.88;45.34;100901.31;1761026;80;21057;-69
2022/05/20 03:40:01;;;;;;;4.80;2.63;;;;;;;13.91;45.27;100897.55;1763099;80;21082;-71
2022/05/20 03:42:29;;;;;;;4.95;2.58;;;;;;;13.94;45.22;100907.75;1760399;80;21466;-70
2022/05/20 03:44:56;;;;;;;5.60;2.60;;;;;;;13.97;44.88;100901.84;1759365;80;21780;-70
2022/05/20 03:47:23;;;;;;;6.50;2.57;;;;;;;14.02;45.14;100892.98;1763146;80;21015;-70
2022/05/20 03:49:50;;;;;;;6.10;2.90;;;;;;;14.04;45.22;100901.56;1722935;81;21284;-71
2022/05/20 03:52:18;;;;;;;7.07;2.80;;;;;;;14.08;45.26;100906.14;1725602;81;21286;-71
2022/05/20 03:54:44;;;;;;;6.07;2.70;;;;;;;14.14;45.05;100904.22;1710403;81;22016;-69
2022/05/20 03:57:11;;;;;;;4.90;2.60;;;;;;;14.18;45.14;100897.77;1722370;81;21606;-69
2022/05/20 03:59:39;;;;;;;6.23;2.80;;;;;;;14.19;44.97;100906.11;1717194;81;21346;-69
2022/05/20 04:02:10;;;;;;;6.00;2.70;;;;;;;14.23;44.89;100912.00;1720602;81;21179;-70
2022/05/20 04:04:43;;;;;;;4.57;2.40;;;;;;;14.33;44.67;100915.20;1724429;81;21250;-69
2022/05/20 04:07:17;;;;;;;5.57;2.70;;;;;;;14.40;44.57;100907.65;1725553;81;21220;-69
2022/05/20 04:09:46;;;;;;;5.63;2.67;;;;;;;14.46;44.55;100905.76;1719963;81;21094;-69
2022/05/20 04:12:28;;;;;;;4.70;2.57;;;;;;;14.53;44.69;100904.95;1765551;80;21227;-70
2022/05/20 04:14:56;;;;;;;4.53;2.70;;;;;;;14.61;45.04;100904.91;1761707;80;21678;-69
2022/05/20 04:17:24;;;;;;;6.73;2.60;;;;;;;14.67;44.55;100907.84;1760881;80;21659;-70
2022/05/20 04:19:51;;;;;;;5.80;2.90;;;;;;;14.70;44.38;100909.98;1765090;80;21268;-70
2022/05/20 04:22:22;;;;;;;5.50;2.50;;;;;;;14.72;44.12;100916.70;1763420;80;21308;-70
2022/05/20 04:24:49;;;;;;;6.33;2.65;;;;;;;14.74;44.24;100927.17;1763269;80;21568;-70
2022/05/20 04:27:16;;;;;;;5.30;2.80;;;;;;;14.78;44.03;100932.29;1765327;80;21030;-70
2022/05/20 04:29:44;;;;;;;6.37;2.73;;;;;;;14.83;44.14;100939.52;1760523;80;21204;-70
2022/05/20 04:32:10;;;;;;;4.90;2.90;;;;;;;14.87;44.24;100939.22;1764888;80;21364;-70
2022/05/20 04:34:39;;;;;;;6.00;2.70;;;;;;;14.91;44.31;100945.14;1758845;80;21259;-70
2022/05/20 04:37:06;;;;;;;5.23;2.90;;;;;;;14.95;44.57;100944.84;1763258;80;21252;-71
2022/05/20 04:39:33;;;;;;;4.50;2.80;;;;;;;14.98;44.79;100936.77;1762954;80;21791;-70
2022/05/20 04:47:32;;;;;;;4.23;2.57;;;;;;;15.06;45.39;100944.23;1750735;81;21314;-69
2022/05/20 04:49:59;;;;;;;4.47;2.83;;;;;;;15.07;45.50;100957.15;1747171;80;21244;-70
2022/05/20 04:52:27;;;;;;;6.90;3.20;;;;;;;15.07;46.05;100953.94;1759329;80;21715;-70
2022/05/20 04:54:55;;;;;;;5.97;3.20;;;;;;;15.09;46.51;100963.06;1762671;80;21367;-69
2022/05/20 04:57:36;;;;;;;5.40;3.00;;;;;;;15.09;46.93;100970.59;1763830;80;21268;-70
2022/05/20 05:00:23;;;;;;;5.00;2.90;;;;;;;15.08;47.61;100981.09;1764066;80;22044;-69
2022/05/20 05:02:53;;;;;;;5.80;2.97;;;;;;;15.07;47.69;100978.16;1761790;80;21223;-70
2022/05/20 05:05:24;;;;;;;7.07;3.10;;;;;;;15.05;48.05;100967.40;1764778;80;21490;-69
2022/05/20 05:07:52;;;;;;;5.13;2.80;;;;;;;15.07;48.24;100965.22;1768547;80;21215;-69
2022/05/20 05:10:25;;;;;;;6.20;2.80;;;;;;;15.12;48.66;100969.24;1760693;80;21741;-69
2022/05/20 05:12:53;;;;;;;6.20;2.90;;;;;;;15.17;48.31;100966.53;1757939;80;21423;-69
2022/05/20 05:15:21;;;;;;;4.70;2.93;;;;;;;15.21;48.59;100963.00;1764207;80;21355;-70
2022/05/20 05:20:34;;;;;;;8.13;4.33;;;;;;;15.29;50.45;100960.80;1762648;80;21865;-70
2022/05/20 05:23:01;;;;;;;10.30;5.37;;;;;;;15.24;50.99;100967.83;1766806;80;21333;-70
2022/05/20 05:25:33;;;;;;;9.40;5.70;;;;;;;15.25;51.87;100969.98;1758133;80;21343;-69
2022/05/20 05:28:01;;;;;;;10.77;5.93;;;;;;;15.28;51.66;100971.31;1765602;80;21365;-71
2022/05/20 05:30:29;;;;;;;11.83;5.97;;;;;;;15.33;51.86;100976.65;1763449;80;21360;-70
2022/05/20 05:32:56;;;;;;;11.07;5.80;;;;;;;15.35;52.51;100985.27;1765839;80;21362;-70
2022/05/20 05:35:26;;;;;;;10.87;7.07;;;;;;;15.35;53.25;100977.98;1766223;80;21275;-70
2022/05/20 05:37:55;;;;;;;13.17;7.47;;;;;;;15.35;53.90;100981.22;1749207;80;21271;-70
2022/05/20 05:40:28;;;;;;;13.17;8.97;;;;;;;15.34;54.54;100986.36;1768343;80;21107;-68
2022/05/20 05:42:59;;;;;;;13.33;9.57;;;;;;;15.37;55.03;100992.53;1764993;80;21242;-69
2022/05/20 05:45:28;;;;;;;12.40;8.27;;;;;;;15.43;55.21;100986.00;1763534;80;21140;-70
2022/05/20 05:48:02;;;;;;;11.40;7.97;;;;;;;15.51;55.65;100995.41;1762547;80;21365;-70
2022/05/20 05:50:31;;;;;;;11.30;8.40;;;;;;;15.57;55.99;100996.44;1764107;80;21205;-70
2022/05/20 05:53:15;;;;;;;9.53;6.80;;;;;;;15.59;56.11;100989.41;1765145;80;21307;-71
2022/05/20 05:55:47;;;;;;;9.17;6.03;;;;;;;15.57;56.47;100992.39;1759837;80;21327;-69
2022/05/20 05:58:14;;;;;;;11.70;5.90;;;;;;;15.54;56.33;100988.91;1764551;80;21314;-69
2022/05/20 06:00:42;;;;;;;7.70;4.97;;;;;;;15.58;55.97;100985.91;1759960;80;21182;-69
2022/05/20 06:03:09;;;;;;;7.10;4.73;;;;;;;15.64;55.48;100986.15;1763012;80;21941;-70
2022/05/20 06:05:36;;;;;;;7.50;4.67;;;;;;;15.68;54.69;100982.37;1760356;80;21421;-70
2022/05/20 06:08:05;;;;;;;8.67;5.00;;;;;;;15.75;54.46;100976.67;1766285;80;21285;-69
2022/05/20 06:10:34;;;;;;;10.13;4.37;;;;;;;15.86;53.83;100981.72;1763836;80;21405;-69
2022/05/20 06:13:01;;;;;;;8.73;4.80;;;;;;;16.02;53.27;100971.59;1765214;80;21431;-69
2022/05/20 06:15:28;;;;;;;7.30;4.63;;;;;;;16.20;52.62;100976.03;1758416;80;21383;-71
2022/05/20 06:17:56;;;;;;;13.63;7.60;;;;;;;16.34;51.07;100972.37;1754898;80;21433;-69
2022/05/20 06:20:24;;;;;;;10.47;7.60;;;;;;;16.48;49.87;100968.45;1763517;80;21476;-70
2022/05/20 06:22:52;;;;;;;15.43;9.13;;;;;;;16.53;49.46;100965.70;1765057;80;21399;-70
2022/05/20 06:25:19;;;;;;;10.93;7.83;;;;;;;16.60;48.71;100967.52;1758473;80;21512;-70
2022/05/20 06:27:47;;;;;;;13.33;8.53;;;;;;;16.75;48.09;100971.14;1753688;80;21691;-70
2022/05/20 06:30:18;;;;;;;12.07;7.67;;;;;;;16.75;48.09;100971.14;1762246;80;21424;-69
2022/05/20 06:32:46;;;;;;;13.60;8.33;;;;;;;16.77;48.57;100976.52;1764395;80;21804;-69
2022/05/20 06:40:46;;;;;;;12.87;8.20;;;;;;;16.75;49.13;100964.40;1764401;80;22235;-70
2022/05/20 06:43:14;;;;;;;12.57;8.57;;;;;;;17.00;48.93;100954.64;1765663;80;21788;-70
2022/05/20 06:45:45;;;;;;;14.20;8.33;;;;;;;17.00;48.93;100954.64;1760200;80;22408;-70
2022/05/20 06:48:12;;;;;;;11.33;7.83;;;;;;;17.19;49.00;100960.06;1764409;80;21710;-70
2022/05/20 06:50:40;;;;;;;12.60;8.23;;;;;;;17.34;48.86;100949.58;1763268;80;21748;-70
2022/05/20 06:53:07;;;;;;;12.07;7.83;;;;;;;17.55;48.70;100950.09;1764220;80;21756;-69
2022/05/20 06:55:39;;;;;;;12.40;7.70;;;;;;;17.79;48.26;100937.84;1765775;80;21681;-70
2022/05/20 06:58:07;;;;;;;12.10;7.90;;;;;;;18.01;47.75;100896.11;1764298;80;22402;-71
2022/05/20 07:00:34;;;;;;;12.43;7.60;;;;;;;18.26;47.46;100934.57;1766587;80;21007;-71
2022/05/20 07:03:01;;;;;;;12.67;7.97;;;;;;;18.47;46.98;100925.53;1764528;80;21713;-72
2022/05/20 07:05:29;;;;;;;12.87;7.90;;;;;;;18.67;46.73;100921.62;1765133;80;21554;-71
2022/05/20 07:07:58;;;;;;;14.70;7.93;;;;;;;18.88;46.16;100925.51;1756250;80;21117;-71
2022/05/20 07:10:26;;;;;;;10.53;7.10;;;;;;;19.07;45.46;100920.52;1764412;80;21074;-71
2022/05/20 07:12:55;;;;;;;10.40;7.30;;;;;;;19.19;45.36;100916.17;1762039;80;21019;-71
2022/05/20 07:15:22;;;;;;;11.13;6.60;;;;;;;19.25;44.52;100924.98;1765707;80;21570;-71
2022/05/20 07:17:49;;;;;;;11.83;6.90;;;;;;;19.21;44.52;100918.56;1759499;79;21212;-72
2022/05/20 07:20:18;;;;;;;10.80;6.93;;;;;;;19.21;44.48;100916.65;1766129;80;21644;-69
2022/05/20 07:22:44;;;;;;;12.27;7.13;;;;;;;19.26;44.53;100917.66;1758887;80;20983;-70
2022/05/20 07:25:11;;;;;;;10.90;6.93;;;;;;;19.25;44.46;100916.04;1760716;80;21018;-71
2022/05/20 07:27:39;;;;;;;9.13;6.53;;;;;;;19.21;44.72;100919.91;1754928;81;21057;-71
2022/05/20 07:30:07;;;;;;;9.93;6.27;;;;;;;19.29;44.41;100925.97;1763603;80;21204;-72
2022/05/20 07:32:34;;;;;;;10.53;6.57;;;;;;;19.33;44.17;100928.30;1759979;80;21092;-70
2022/05/20 07:35:02;;;;;;;13.03;7.20;;;;;;;19.30;44.11;100934.33;1765265;80;21506;-72
2022/05/20 07:37:29;;;;;;;10.77;6.43;;;;;;;19.07;44.60;100944.33;1745902;80;20978;-71
2022/05/20 07:39:57;;;;;;;10.73;5.80;;;;;;;18.77;45.15;100944.43;1766259;80;21116;-71
2022/05/20 07:42:24;;;;;;;9.13;5.97;;;;;;;18.63;45.95;100939.56;1737265;80;21547;-70
2022/05/20 07:44:51;;;;;;;11.60;5.90;;;;;;;18.60;46.73;100950.43;1763998;80;22058;-70
2022/05/20 07:47:20;;;;;;;10.20;5.90;;;;;;;18.49;48.10;100943.59;1749305;80;21010;-68
2022/05/20 07:49:49;;;;;;;10.20;6.20;;;;;;;18.44;48.87;100937.75;1764129;80;21553;-71
2022/05/20 07:55:15;;;;;;;8.97;6.07;;;;;;;18.53;50.66;100918.92;1763185;80;21101;-70
2022/05/20 07:57:42;;;;;;;8.23;5.17;;;;;;;18.58;50.45;100913.95;1759133;80;21405;-70
2022/05/20 08:00:14;;;;;;;8.97;5.93;;;;;;;18.58;50.70;100915.30;1761143;80;21064;-70
2022/05/20 08:02:43;;;;;;;10.50;5.97;;;;;;;18.48;51.29;100908.20;1765257;80;21073;-69
2022/05/20 08:05:12;;;;;;;9.00;6.00;;;;;;;18.49;51.83;100905.73;1765500;80;21568;-71
2022/05/20 08:07:44;;;;;;;9.53;5.77;;;;;;;18.59;52.10;100907.42;1764495;79;21359;-69
2022/05/20 08:10:15;;;;;;;9.38;5.65;;;;;;;18.71;51.59;100903.11;1762779;80;21066;-69
2022/05/20 08:12:42;;;;;;;8.65;5.47;;;;;;;18.75;51.27;100911.45;1764002;80;21077;-70
2022/05/20 08:15:10;;;;;;;8.90;5.77;;;;;;;18.81;50.83;100919.72;1749407;80;21540;-70
2022/05/20 08:17:40;;;;;;;8.67;5.70;;;;;;;18.86;51.03;100925.03;1758212;80;21601;-70
2022/05/20 08:20:09;;;;;;;9.47;5.70;;;;;;;18.99;50.64;100920.70;1764953;80;21219;-73
2022/05/20 08:22:37;;;;;;;8.50;5.33;;;;;;;19.04;50.48;100920.57;1763744;80;21022;-71
2022/05/20 08:25:05;;;;;;;10.67;4.90;;;;;;;18.99;50.73;100928.81;1764662;80;21165;-68
2022/05/20 08:27:35;;;;;;;7.47;4.83;;;;;;;18.89;50.44;100920.37;1766089;80;21557;-71
2022/05/20 08:30:10;;;;;;;6.93;4.80;;;;;;;18.81;50.68;100917.00;1766323;80;21718;-71
2022/05/20 08:32:37;;;;;;;7.43;5.10;;;;;;;18.79;50.88;100912.99;1763365;80;22027;-71
2022/05/20 08:35:07;;;;;;;7.13;4.70;;;;;;;18.76;51.62;100909.57;1763490;80;21030;-70
2022/05/20 08:37:39;;;;;;;6.50;4.63;;;;;;;18.81;51.57;100907.53;1764167;80;21035;-71
2022/05/20 08:40:10;;;;;;;7.00;4.63;;;;;;;18.91;51.47;100899.75;1764940;80;21086;-70
2022/05/20 08:42:38;;;;;;;7.50;4.45;;;;;;;18.97;51.54;100890.41;1762809;80;27219;-69
2022/05/20 08:45:06;;;;;;;7.17;4.90;;;;;;;19.02;51.85;100889.48;1763739;80;22112;-70
2022/05/20 08:47:44;;;;;;;6.60;4.60;;;;;;;19.10;52.18;100882.01;1736163;80;21561;-71
2022/05/20 08:50:15;;;;;;;6.63;4.47;;;;;;;19.17;52.58;100878.31;1760674;80;21023;-70
2022/05/20 08:52:43;;;;;;;7.37;4.33;;;;;;;19.29;52.53;100871.80;1756257;80;21062;-70
2022/05/20 08:56:01;;;;;;;7.73;4.20;;;;;;;19.39;52.06;100866.70;1759256;80;21613;-71
2022/05/20 08:58:17;;;;;;;6.53;4.30;;;;;;;19.47;51.70;100859.73;1739458;81;21038;-71
2022/05/20 09:00:49;;;;;;;6.63;4.30;;;;;;;19.58;51.80;100865.16;1749662;81;21042;-70
2022/05/20 09:03:23;;;;;;;6.27;3.93;;;;;;;19.67;51.54;100860.59;1760081;81;21085;-70
2022/05/20 09:06:06;;;;;;;6.37;4.30;;;;;;;19.78;51.49;100857.08;1766730;80;21061;-70
2022/05/20 09:08:33;;;;;;;6.30;4.13;;;;;;;19.91;51.15;100862.95;1718985;82;21067;-70
2022/05/20 09:11:02;;;;;;;8.37;4.30;;;;;;;20.03;50.85;100856.93;1719049;82;21139;-71
2022/05/20 09:16:37;;;;;;;6.03;3.80;;;;;;;20.15;50.15;100857.14;1765214;79;21002;-71
2022/05/20 09:19:17;;;;;;;6.83;3.50;;;;;;;20.09;50.04;100851.62;1767701;80;20956;-72
2022/05/20 09:21:47;;;;;;;7.60;4.00;;;;;;;20.02;49.82;100845.85;1762595;80;22126;-69
2022/05/20 09:24:19;;;;;;;6.97;3.90;;;;;;;20.16;50.00;100843.81;1756373;80;21093;-70
2022/05/20 09:26:53;;;;;;;7.97;3.70;;;;;;;20.35;49.54;100844.92;1753346;80;21029;-70
2022/05/20 09:29:48;;;;;;;6.83;3.40;;;;;;;20.39;48.90;100848.03;1716964;82;21494;-69
2022/05/20 09:32:29;;;;;;;11.87;4.67;;;;;;;20.45;48.10;100847.89;1703357;82;21105;-71
2022/05/20 09:35:06;;;;;;;11.55;4.08;;;;;;;20.56;47.11;100843.22;1713936;82;21070;-70
2022/05/20 09:37:35;;;;;;;12.40;3.83;;;;;;;20.80;47.01;100837.92;1712673;82;21261;-70
2022/05/20 09:40:26;;;;;;;9.57;3.87;;;;;;;21.12;46.32;100832.53;1714398;82;20992;-71
2022/05/20 09:43:06;;;;;;;8.47;3.90;;;;;;;21.47;45.94;100833.87;1697162;82;21116;-71
2022/05/20 09:45:46;;;;;;;6.53;3.30;;;;;;;21.87;45.33;100822.71;1740778;82;21611;-71
2022/05/20 09:48:40;;;;;;;7.03;3.23;;;;;;;22.25;44.52;100824.08;1764363;80;21066;-70
2022/05/20 09:51:18;;;;;;;6.07;3.10;;;;;;;22.59;43.51;100816.80;1765973;80;21198;-70
2022/05/20 09:54:07;;;;;;;8.17;2.97;;;;;;;22.95;42.10;100816.22;1760486;80;21588;-70
2022/05/20 09:56:34;;;;;;;8.40;3.60;;;;;;;23.24;41.11;100808.50;1761731;80;21018;-72
2022/05/20 09:59:39;;;;;;;8.20;2.70;;;;;;;23.61;39.80;100801.75;1743466;81;21049;-72
2022/05/20 10:02:29;;;;;;;6.10;2.80;;;;;;;23.85;38.49;100796.91;1731253;82;21043;-71
2022/05/20 10:05:30;;;;;;;7.53;3.00;;;;;;;24.05;37.88;100793.28;1732986;82;21217;-71
2022/05/20 10:08:22;;;;;;;8.05;2.90;;;;;;;24.05;36.28;100796.56;1706185;82;21031;-70
2022/05/20 10:11:24;;;;;;;9.27;3.03;;;;;;;23.95;35.60;100795.08;1717526;82;21072;-71
2022/05/20 10:14:08;;;;;;;6.05;2.80;;;;;;;23.90;37.18;100792.60;1759374;80;21544;-70
2022/05/20 10:16:53;;;;;;;4.97;2.40;;;;;;;24.01;36.59;100786.90;1765460;80;21030;-71
2022/05/20 10:19:41;;;;;;;6.47;2.80;;;;;;;24.16;36.35;100784.06;1763583;80;21593;-71
2022/05/20 10:22:23;;;;;;;7.43;2.47;;;;;;;24.20;35.67;100778.70;1763255;80;21698;-71
2022/05/20 10:25:12;;;;;;;;;;;;;;;24.32;35.71;100771.30;1765110;80;21033;-70
2022/05/20 10:28:06;;;;;;;7.67;2.60;;;;;;;24.53;35.01;100762.16;1735940;81;20172;-72
2022/05/20 10:33:31;;;;;;;9.77;2.43;;;;;;;24.87;34.04;100742.22;1764647;80;21810;-71
2022/05/20 10:36:21;;;;;;;6.40;2.80;;;;;;;25.10;32.90;100749.27;1763611;80;21037;-72
2022/05/20 10:39:08;;;;;;;4.97;2.33;;;;;;;25.25;33.69;100741.70;1761559;80;21006;-71
2022/05/20 10:42:12;;;;;;;5.87;2.50;;;;;;;25.33;33.86;100730.35;1741933;80;21581;-71
2022/05/20 10:50:59;;;;;;;5.60;2.60;;;;;;;25.47;32.99;100713.73;1713524;82;20999;-70
2022/05/20 10:53:35;;;;;;;4.93;2.37;;;;;;;25.58;32.21;100705.78;1619805;82;21047;-71
2022/05/20 10:56:35;;;;;;;4.70;2.37;;;;;;;25.66;31.30;100698.52;1713183;82;21491;-70
2022/05/20 10:59:25;;;;;;;5.97;2.13;;;;;;;25.64;31.15;100689.31;1700307;82;21078;-70
2022/05/20 11:02:01;;;;;;;5.12;2.20;;;;;;;25.54;30.24;100684.40;1713943;82;21372;-70
2022/05/20 11:05:05;;;;;;;6.93;2.40;;;;;;;25.35;30.92;100678.28;1725181;82;21106;-71
2022/05/20 11:07:43;;;;;;;4.90;2.00;;;;;;;25.25;31.27;100678.81;1700804;82;20944;-71
2022/05/20 11:10:22;;;;;;;6.80;2.00;;;;;;;25.43;31.06;100676.50;1713492;82;21102;-71
2022/05/20 11:13:17;;;;;;;5.03;1.97;;;;;;;25.62;30.60;100670.30;1708451;82;20964;-71
2022/05/20 11:15:55;;;;;;;4.67;1.90;;;;;;;25.81;29.62;100664.11;1714502;82;21078;-70
2022/05/20 11:18:34;;;;;;;6.27;2.10;;;;;;;25.99;29.64;100659.02;1714454;82;21091;-71
2022/05/20 11:21:21;;;;;;;3.67;2.00;;;;;;;26.10;28.87;100653.20;1706835;82;20952;-72
2022/05/20 11:24:15;;;;;;;4.63;2.20;;;;;;;26.19;29.16;100649.09;1765316;80;21002;-71
2022/05/20 11:27:23;;;;;;;4.87;2.20;;;;;;;26.22;30.15;100644.82;1775205;80;21062;-71
2022/05/20 11:30:14;;;;;;;4.23;1.90;;;;;;;26.23;29.39;100635.48;1778310;80;21236;-71
2022/05/20 11:32:52;;;;;;;6.03;2.43;;;;;;;26.20;29.92;100631.51;1716164;82;20993;-71
2022/05/20 11:35:27;;;;;;;3.40;1.83;;;;;;;26.23;30.53;100621.00;1771856;80;21488;-71
2022/05/20 11:38:28;;;;;;;6.70;2.87;;;;;;;26.39;29.82;100610.72;1751554;81;21022;-71
2022/05/20 11:41:19;;;;;;;7.10;2.20;;;;;;;26.55;29.66;100612.02;1765609;80;21066;-71
2022/05/20 11:44:14;;;;;;;4.92;2.30;;;;;;;26.77;29.61;100606.34;1763793;80;21824;-71
2022/05/20 11:47:28;;;;;;;4.27;2.30;;;;;;;26.96;28.57;100596.69;1762179;80;20990;-71
2022/05/20 11:50:41;;;;;;;5.97;1.83;;;;;;;27.01;26.91;100590.88;1763096;80;21029;-71
2022/05/20 11:53:26;;;;;;;4.40;1.90;;;;;;;27.02;27.80;100583.47;1749015;80;21049;-73
2022/05/20 11:56:06;;;;;;;5.10;2.20;;;;;;;27.13;26.56;100580.33;1729380;81;21030;-72
2022/05/20 11:58:44;;;;;;;3.43;2.10;;;;;;;27.31;26.16;100577.28;1697079;82;21252;-71
2022/05/20 12:01:11;;;;;;;5.50;1.90;;;;;;;27.36;26.34;100575.57;1713320;82;21054;-71
2022/05/20 12:06:24;;;;;;;4.07;1.80;;;;;;;27.53;25.82;100569.33;1685194;83;21514;-71
2022/05/20 12:08:57;;;;;;;3.87;1.90;;;;;;;27.57;26.00;100566.05;1690324;82;21097;-70
2022/05/20 12:11:36;;;;;;;4.93;1.93;;;;;;;27.70;25.71;100560.52;1715404;82;21098;-71
2022/05/20 12:14:14;;;;;;;8.13;2.10;;;;;;;27.82;25.33;100562.28;1696966;82;20928;-71
2022/05/20 12:17:04;;;;;;;4.43;1.93;;;;;;;27.93;25.49;100553.58;1695068;82;20995;-72
2022/05/20 12:25:54;;;;;;;4.93;1.87;;;;;;;28.15;24.98;100528.52;1679649;83;21150;-70
2022/05/20 12:28:26;;;;;;;3.27;1.73;;;;;;;28.18;24.74;100523.64;1700891;82;21549;-70
2022/05/20 12:31:25;;;;;;;4.67;2.10;;;;;;;28.20;24.85;100519.95;1713835;82;21115;-70
2022/05/20 12:34:10;;;;;;;4.63;2.00;;;;;;;28.15;24.45;100517.53;1704872;82;21059;-71
2022/05/20 12:36:34;;;;;;;3.50;1.90;;;;;;;28.23;23.44;100517.83;1713886;82;21557;-70
2022/05/20 12:39:12;;;;;;;4.67;1.90;;;;;;;28.26;22.78;100514.30;1714449;82;21125;-70